createdAt,value
2018-09-02T00:00:30.851Z,0
2018-09-02T00:01:32.744Z,0
2018-09-02T00:02:34.592Z,0
2018-09-02T00:03:36.362Z,0
2018-09-02T00:04:38.590Z,0
2018-09-02T00:05:40.289Z,0
2018-09-02T00:06:42.507Z,0
2018-09-02T00:07:44.587Z,0
2018-09-02T00:08:46.491Z,0
2018-09-02T00:09:48.696Z,0
2018-09-02T00:10:50.952Z,0
2018-09-02T00:11:53.138Z,0
2018-09-02T00:12:55.264Z,0
2018-09-02T00:13:57.047Z,0
2018-09-02T00:14:59.251Z,0
2018-09-02T00:16:01.094Z,0
2018-09-02T00:17:02.976Z,0
2018-09-02T00:18:04.909Z,0
2018-09-02T00:19:06.800Z,0
2018-09-02T00:20:08.637Z,0
2018-09-02T00:21:10.355Z,0
2018-09-02T00:22:12.255Z,0
2018-09-02T00:23:14.147Z,0
2018-09-02T00:24:16.046Z,0
2018-09-02T00:25:18.257Z,0
2018-09-02T00:26:20.295Z,0
2018-09-02T00:27:22.047Z,0
2018-09-02T00:28:24.211Z,0
2018-09-02T00:29:26.445Z,0
2018-09-02T00:30:28.202Z,0
2018-09-02T00:31:30.450Z,0
2018-09-02T00:32:32.304Z,0
2018-09-02T00:33:34.455Z,0
2018-09-02T00:34:36.257Z,0
2018-09-02T00:35:38.122Z,0
2018-09-02T00:36:40.313Z,0
2018-09-02T00:37:42.068Z,0
2018-09-02T00:38:44.388Z,0
2018-09-02T00:39:46.144Z,0
2018-09-02T00:40:47.932Z,0
2018-09-02T00:41:50.082Z,0
2018-09-02T00:42:51.946Z,0
2018-09-02T00:43:53.822Z,0
2018-09-02T00:44:56.174Z,0
2018-09-02T00:45:57.955Z,0
2018-09-02T00:46:59.745Z,0
2018-09-02T00:48:01.529Z,0
2018-09-02T00:49:03.431Z,0
2018-09-02T00:50:05.328Z,0
2018-09-02T00:51:07.574Z,0
2018-09-02T00:52:09.655Z,0
2018-09-02T00:53:11.773Z,0
2018-09-02T00:54:13.657Z,0
2018-09-02T00:55:15.883Z,0
2018-09-02T00:56:17.648Z,0
2018-09-02T00:57:19.758Z,0
2018-09-02T00:58:21.932Z,0
2018-09-02T00:59:23.967Z,0
2018-09-02T01:00:25.825Z,0
2018-09-02T01:01:27.681Z,0
2018-09-02T01:02:29.572Z,0
2018-09-02T01:03:31.827Z,0
2018-09-02T01:04:33.888Z,0
2018-09-02T01:05:36.012Z,0
2018-09-02T01:06:37.778Z,0
2018-09-02T01:07:39.709Z,0
2018-09-02T01:08:41.505Z,0
2018-09-02T01:09:43.852Z,0
2018-09-02T01:10:45.997Z,0
2018-09-02T01:11:48.249Z,0
2018-09-02T01:12:50.373Z,0
2018-09-02T01:13:52.534Z,0
2018-09-02T01:14:54.381Z,0
2018-09-02T01:15:56.291Z,0
2018-09-02T01:16:58.591Z,0
2018-09-02T01:18:00.603Z,0
2018-09-02T01:19:02.685Z,0
2018-09-02T01:20:04.881Z,0
2018-09-02T01:21:06.923Z,0
2018-09-02T01:22:08.709Z,0
2018-09-02T01:23:10.843Z,0
2018-09-02T01:24:12.841Z,0
2018-09-02T01:25:15.642Z,0
2018-09-02T01:26:17.887Z,0
2018-09-02T01:27:20.022Z,0
2018-09-02T01:28:21.895Z,0
2018-09-02T01:29:24.080Z,0
2018-09-02T01:30:25.900Z,0
2018-09-02T01:31:27.795Z,0
2018-09-02T01:32:29.598Z,0
2018-09-02T01:33:31.443Z,0
2018-09-02T01:34:33.371Z,0
2018-09-02T01:35:35.657Z,0
2018-09-02T01:36:37.492Z,0
2018-09-02T01:37:39.713Z,0
2018-09-02T01:38:41.882Z,0
2018-09-02T01:39:44.840Z,0
2018-09-02T01:40:46.632Z,0
2018-09-02T01:41:48.535Z,0
2018-09-02T01:42:50.321Z,0
2018-09-02T01:43:52.145Z,0
2018-09-02T01:44:53.932Z,0
2018-09-02T01:45:55.780Z,0
2018-09-02T01:46:57.747Z,0
2018-09-02T01:47:59.655Z,0
2018-09-02T01:49:01.513Z,0
2018-09-02T01:50:03.738Z,0
2018-09-02T01:51:05.571Z,0
2018-09-02T01:52:07.749Z,0
2018-09-02T01:53:09.710Z,0
2018-09-02T01:54:11.751Z,0
2018-09-02T01:55:13.880Z,0
2018-09-02T01:56:16.237Z,0
2018-09-02T01:57:18.162Z,0
2018-09-02T01:58:20.019Z,0
2018-09-02T01:59:22.255Z,0
2018-09-02T02:00:24.132Z,0
2018-09-02T02:01:26.192Z,0
2018-09-02T02:02:28.058Z,0
2018-09-02T02:03:30.398Z,0
2018-09-02T02:04:32.324Z,0
2018-09-02T02:05:34.392Z,0
2018-09-02T02:06:36.667Z,0
2018-09-02T02:07:38.705Z,0
2018-09-02T02:08:40.798Z,0
2018-09-02T02:09:42.715Z,0
2018-09-02T02:10:44.617Z,0
2018-09-02T02:11:46.522Z,0
2018-09-02T02:12:48.760Z,0
2018-09-02T02:13:50.751Z,0
2018-09-02T02:14:52.874Z,0
2018-09-02T02:15:54.718Z,0
2018-09-02T02:16:56.642Z,0
2018-09-02T02:17:58.614Z,0
2018-09-02T02:19:00.589Z,0
2018-09-02T02:20:02.512Z,0
2018-09-02T02:21:04.762Z,0
2018-09-02T02:22:06.513Z,0
2018-09-02T02:23:08.395Z,0
2018-09-02T02:24:10.372Z,0
2018-09-02T02:25:12.357Z,0
2018-09-02T02:26:14.294Z,0
2018-09-02T02:27:16.212Z,0
2018-09-02T02:28:18.066Z,0
2018-09-02T02:29:20.032Z,0
2018-09-02T02:30:21.934Z,0
2018-09-02T02:31:23.872Z,0
2018-09-02T02:32:25.855Z,0
2018-09-02T02:33:27.892Z,0
2018-09-02T02:34:29.889Z,0
2018-09-02T02:35:31.813Z,0
2018-09-02T02:36:33.745Z,0
2018-09-02T02:37:35.592Z,0
2018-09-02T02:38:37.582Z,0
2018-09-02T02:39:39.708Z,0
2018-09-02T02:40:41.687Z,0
2018-09-02T02:41:43.697Z,0
2018-09-02T02:42:45.734Z,0
2018-09-02T02:43:47.854Z,0
2018-09-02T02:44:49.803Z,0
2018-09-02T02:45:51.781Z,0
2018-09-02T02:46:53.912Z,0
2018-09-02T02:47:55.916Z,0
2018-09-02T02:48:57.939Z,0
2018-09-02T02:49:59.839Z,0
2018-09-02T02:51:02.018Z,0
2018-09-02T02:52:04.008Z,0
2018-09-02T02:53:05.967Z,0
2018-09-02T02:54:07.856Z,0
2018-09-02T02:55:09.869Z,0
2018-09-02T02:56:11.892Z,0
2018-09-02T02:57:13.786Z,0
2018-09-02T02:58:15.676Z,0
2018-09-02T02:59:17.619Z,0
2018-09-02T03:00:19.403Z,0
2018-09-02T03:01:21.570Z,0
2018-09-02T03:02:23.443Z,0
2018-09-02T03:03:25.511Z,0
2018-09-02T03:04:27.370Z,0
2018-09-02T03:05:29.332Z,0
2018-09-02T03:06:31.224Z,0
2018-09-02T03:07:33.222Z,0
2018-09-02T03:08:35.327Z,0
2018-09-02T03:09:37.236Z,0
2018-09-02T03:10:39.280Z,0
2018-09-02T03:11:41.258Z,0
2018-09-02T03:12:43.248Z,0
2018-09-02T03:13:45.556Z,0
2018-09-02T03:14:47.527Z,0
2018-09-02T03:15:49.563Z,0
2018-09-02T03:16:51.542Z,0
2018-09-02T03:17:53.506Z,0
2018-09-02T03:18:55.392Z,0
2018-09-02T03:19:57.538Z,0
2018-09-02T03:20:59.561Z,0
2018-09-02T03:22:01.520Z,0
2018-09-02T03:23:03.659Z,0
2018-09-02T03:24:05.612Z,0
2018-09-02T03:25:07.872Z,0
2018-09-02T03:26:09.831Z,0
2018-09-02T03:27:12.029Z,0
2018-09-02T03:28:13.972Z,0
2018-09-02T03:29:16.126Z,0
2018-09-02T03:30:18.307Z,0
2018-09-02T03:31:20.367Z,0
2018-09-02T03:32:22.293Z,0
2018-09-02T03:33:24.316Z,0
2018-09-02T03:34:26.484Z,0
2018-09-02T03:35:28.327Z,0
2018-09-02T03:36:30.468Z,0
2018-09-02T03:37:32.487Z,0
2018-09-02T03:38:34.456Z,0
2018-09-02T03:39:36.414Z,0
2018-09-02T03:40:38.418Z,0
2018-09-02T03:41:41.391Z,0
2018-09-02T03:42:43.675Z,0
2018-09-02T03:43:45.774Z,0
2018-09-02T03:44:47.873Z,0
2018-09-02T03:45:49.818Z,0
2018-09-02T03:46:51.879Z,0
2018-09-02T03:47:53.804Z,0
2018-09-02T03:48:55.766Z,0
2018-09-02T03:49:57.787Z,0
2018-09-02T03:50:59.976Z,0
2018-09-02T03:52:02.275Z,0
2018-09-02T03:53:04.252Z,0
2018-09-02T03:54:06.253Z,0
2018-09-02T03:55:08.184Z,0
2018-09-02T03:56:10.162Z,0
2018-09-02T03:57:12.038Z,0
2018-09-02T03:58:14.061Z,0
2018-09-02T03:59:16.200Z,0
2018-09-02T04:00:18.124Z,0
2018-09-02T04:01:20.132Z,0
2018-09-02T04:02:21.959Z,0
2018-09-02T04:03:24.129Z,0
2018-09-02T04:04:26.158Z,0
2018-09-02T04:05:28.121Z,0
2018-09-02T04:06:30.068Z,0
2018-09-02T04:07:32.260Z,0
2018-09-02T04:08:34.487Z,0
2018-09-02T04:09:36.366Z,0
2018-09-02T04:10:38.329Z,0
2018-09-02T04:11:40.347Z,0
2018-09-02T04:12:42.280Z,0
2018-09-02T04:13:44.379Z,0
2018-09-02T04:14:46.506Z,0
2018-09-02T04:15:48.438Z,0
2018-09-02T04:16:50.376Z,0
2018-09-02T04:17:52.452Z,0
2018-09-02T04:18:54.289Z,0
2018-09-02T04:19:56.359Z,0
2018-09-02T04:20:58.424Z,0
2018-09-02T04:22:00.673Z,0
2018-09-02T04:23:02.538Z,0
2018-09-02T04:24:04.591Z,0
2018-09-02T04:25:06.766Z,0
2018-09-02T04:26:08.716Z,0
2018-09-02T04:27:10.853Z,0
2018-09-02T04:28:12.903Z,0
2018-09-02T04:29:14.784Z,0
2018-09-02T04:30:16.846Z,0
2018-09-02T04:31:18.897Z,0
2018-09-02T04:32:20.753Z,0
2018-09-02T04:33:22.499Z,0
2018-09-02T04:34:24.605Z,0
2018-09-02T04:35:26.672Z,0
2018-09-02T04:36:28.612Z,5
2018-09-02T04:37:30.565Z,5
2018-09-02T04:38:32.661Z,5
2018-09-02T04:39:34.482Z,5
2018-09-02T04:40:36.303Z,5
2018-09-02T04:41:38.195Z,5
2018-09-02T04:42:40.321Z,10
2018-09-02T04:43:42.261Z,10
2018-09-02T04:44:44.356Z,10
2018-09-02T04:45:46.399Z,10
2018-09-02T04:46:48.205Z,10
2018-09-02T04:47:50.314Z,15
2018-09-02T04:48:52.384Z,15
2018-09-02T04:49:54.345Z,15
2018-09-02T04:50:56.510Z,15
2018-09-02T04:51:58.277Z,20
2018-09-02T04:53:00.160Z,20
2018-09-02T04:54:02.275Z,20
2018-09-02T04:55:04.411Z,20
2018-09-02T04:56:06.778Z,25
2018-09-02T04:57:08.754Z,25
2018-09-02T04:58:10.973Z,25
2018-09-02T04:59:13.037Z,30
2018-09-02T05:00:15.122Z,30
2018-09-02T05:01:17.106Z,35
2018-09-02T05:02:19.197Z,35
2018-09-02T05:03:21.238Z,40
2018-09-02T05:04:23.016Z,40
2018-09-02T05:05:25.157Z,40
2018-09-02T05:06:26.976Z,45
2018-09-02T05:07:29.167Z,45
2018-09-02T05:08:31.305Z,50
2018-09-02T05:09:33.569Z,50
2018-09-02T05:10:35.762Z,50
2018-09-02T05:11:37.888Z,55
2018-09-02T05:12:39.909Z,55
2018-09-02T05:13:41.778Z,60
2018-09-02T05:14:43.990Z,60
2018-09-02T05:15:46.014Z,65
2018-09-02T05:16:48.164Z,65
2018-09-02T05:17:50.368Z,70
2018-09-02T05:18:52.584Z,75
2018-09-02T05:19:54.636Z,75
2018-09-02T05:20:56.478Z,80
2018-09-02T05:21:58.666Z,85
2018-09-02T05:23:00.670Z,85
2018-09-02T05:24:02.752Z,90
2018-09-02T05:25:04.554Z,90
2018-09-02T05:26:06.665Z,90
2018-09-02T05:27:08.774Z,95
2018-09-02T05:28:10.654Z,95
2018-09-02T05:29:12.429Z,100
2018-09-02T05:30:14.255Z,105
2018-09-02T05:31:16.113Z,105
2018-09-02T05:32:18.191Z,110
2018-09-02T05:33:20.223Z,115
2018-09-02T05:34:22.020Z,115
2018-09-02T05:35:24.318Z,120
2018-09-02T05:36:26.064Z,120
2018-09-02T05:37:28.420Z,130
2018-09-02T05:38:30.190Z,130
2018-09-02T05:39:32.113Z,130
2018-09-02T05:40:34.293Z,135
2018-09-02T05:41:36.220Z,135
2018-09-02T05:42:38.017Z,140
2018-09-02T05:43:40.073Z,140
2018-09-02T05:44:41.868Z,140
2018-09-02T05:45:43.990Z,145
2018-09-02T05:46:46.422Z,150
2018-09-02T05:47:48.490Z,150
2018-09-02T05:48:50.326Z,155
2018-09-02T05:49:52.437Z,160
2018-09-02T05:50:54.290Z,165
2018-09-02T05:51:56.154Z,170
2018-09-02T05:52:57.948Z,170
2018-09-02T05:54:00.295Z,175
2018-09-02T05:55:02.093Z,180
2018-09-02T05:56:04.213Z,180
2018-09-02T05:57:06.224Z,185
2018-09-02T05:58:07.986Z,185
2018-09-02T05:59:10.007Z,185
2018-09-02T06:00:12.212Z,190
2018-09-02T06:01:14.461Z,195
2018-09-02T06:02:16.717Z,200
2018-09-02T06:03:18.806Z,200
2018-09-02T06:04:21.029Z,205
2018-09-02T06:05:23.118Z,210
2018-09-02T06:06:25.379Z,215
2018-09-02T06:07:27.412Z,220
2018-09-02T06:08:29.444Z,220
2018-09-02T06:09:31.755Z,225
2018-09-02T06:10:33.776Z,230
2018-09-02T06:11:36.188Z,230
2018-09-02T06:12:38.561Z,235
2018-09-02T06:13:40.683Z,235
2018-09-02T06:14:42.513Z,240
2018-09-02T06:15:44.822Z,245
2018-09-02T06:16:46.968Z,245
2018-09-02T06:17:49.073Z,250
2018-09-02T06:18:50.933Z,255
2018-09-02T06:19:52.899Z,260
2018-09-02T06:20:55.226Z,265
2018-09-02T06:21:57.425Z,265
2018-09-02T06:22:59.313Z,270
2018-09-02T06:24:01.184Z,270
2018-09-02T06:25:03.198Z,275
2018-09-02T06:26:05.153Z,280
2018-09-02T06:27:07.166Z,285
2018-09-02T06:28:09.072Z,285
2018-09-02T06:29:10.966Z,290
2018-09-02T06:30:12.883Z,295
2018-09-02T06:31:15.136Z,295
2018-09-02T06:32:16.931Z,295
2018-09-02T06:33:19.158Z,300
2018-09-02T06:34:21.160Z,300
2018-09-02T06:35:23.079Z,305
2018-09-02T06:36:24.807Z,315
2018-09-02T06:37:26.974Z,320
2018-09-02T06:38:29.277Z,315
2018-09-02T06:39:31.584Z,320
2018-09-02T06:40:33.464Z,325
2018-09-02T06:41:35.377Z,330
2018-09-02T06:42:37.432Z,335
2018-09-02T06:43:39.573Z,340
2018-09-02T06:44:41.756Z,345
2018-09-02T06:45:43.968Z,345
2018-09-02T06:46:45.875Z,350
2018-09-02T06:47:47.996Z,355
2018-09-02T06:48:50.028Z,355
2018-09-02T06:49:52.672Z,360
2018-09-02T06:50:54.853Z,365
2018-09-02T06:51:56.626Z,365
2018-09-02T06:52:58.573Z,370
2018-09-02T06:54:00.757Z,370
2018-09-02T06:55:02.798Z,375
2018-09-02T06:56:05.055Z,380
2018-09-02T06:57:06.894Z,385
2018-09-02T06:58:08.775Z,390
2018-09-02T06:59:10.718Z,395
2018-09-02T07:00:13.087Z,400
2018-09-02T07:01:14.864Z,405
2018-09-02T07:02:16.703Z,410
2018-09-02T07:03:19.056Z,415
2018-09-02T07:04:21.088Z,420
2018-09-02T07:05:23.188Z,425
2018-09-02T07:06:25.136Z,425
2018-09-02T07:07:27.376Z,430
2018-09-02T07:08:29.344Z,435
2018-09-02T07:09:31.719Z,440
2018-09-02T07:10:33.633Z,445
2018-09-02T07:11:35.731Z,440
2018-09-02T07:12:37.689Z,445
2018-09-02T07:13:39.538Z,450
2018-09-02T07:14:41.412Z,450
2018-09-02T07:15:43.418Z,450
2018-09-02T07:16:45.317Z,450
2018-09-02T07:17:47.213Z,455
2018-09-02T07:18:49.228Z,460
2018-09-02T07:19:51.087Z,465
2018-09-02T07:20:52.964Z,470
2018-09-02T07:21:54.911Z,470
2018-09-02T07:22:57.112Z,475
2018-09-02T07:23:59.064Z,475
2018-09-02T07:25:00.940Z,480
2018-09-02T07:26:02.785Z,485
2018-09-02T07:27:04.681Z,490
2018-09-02T07:28:06.553Z,495
2018-09-02T07:29:08.459Z,495
2018-09-02T07:30:10.658Z,495
2018-09-02T07:31:12.529Z,495
2018-09-02T07:32:14.455Z,500
2018-09-02T07:33:16.534Z,505
2018-09-02T07:34:18.420Z,505
2018-09-02T07:35:20.457Z,510
2018-09-02T07:36:22.348Z,520
2018-09-02T07:37:24.308Z,515
2018-09-02T07:38:26.203Z,515
2018-09-02T07:39:28.107Z,520
2018-09-02T07:40:30.036Z,520
2018-09-02T07:41:32.231Z,525
2018-09-02T07:42:34.246Z,530
2018-09-02T07:43:36.074Z,530
2018-09-02T07:44:38.305Z,530
2018-09-02T07:45:40.908Z,535
2018-09-02T07:46:42.710Z,540
2018-09-02T07:47:44.599Z,545
2018-09-02T07:48:46.603Z,540
2018-09-02T07:49:48.692Z,545
2018-09-02T07:50:50.602Z,545
2018-09-02T07:51:52.403Z,555
2018-09-02T07:52:54.506Z,550
2018-09-02T07:53:56.380Z,550
2018-09-02T07:54:58.441Z,550
2018-09-02T07:56:00.307Z,550
2018-09-02T07:57:02.258Z,555
2018-09-02T07:58:04.999Z,555
2018-09-02T07:59:07.028Z,555
2018-09-02T08:00:08.998Z,555
2018-09-02T08:01:10.825Z,555
2018-09-02T08:02:13.162Z,555
2018-09-02T08:03:15.008Z,555
2018-09-02T08:04:16.797Z,565
2018-09-02T08:05:18.546Z,560
2018-09-02T08:06:20.419Z,570
2018-09-02T08:07:22.557Z,565
2018-09-02T08:08:24.466Z,570
2018-09-02T08:09:26.805Z,570
2018-09-02T08:10:28.661Z,575
2018-09-02T08:11:30.402Z,575
2018-09-02T08:12:32.576Z,575
2018-09-02T08:13:34.568Z,580
2018-09-02T08:14:36.484Z,580
2018-09-02T08:15:38.290Z,585
2018-09-02T08:16:40.887Z,585
2018-09-02T08:17:42.835Z,585
2018-09-02T08:18:44.856Z,585
2018-09-02T08:19:46.925Z,590
2018-09-02T08:20:48.616Z,590
2018-09-02T08:21:50.551Z,595
2018-09-02T08:22:52.504Z,595
2018-09-02T08:23:54.429Z,600
2018-09-02T08:24:56.572Z,610
2018-09-02T08:25:58.405Z,605
2018-09-02T08:27:00.589Z,610
2018-09-02T08:28:02.682Z,610
2018-09-02T08:29:04.762Z,610
2018-09-02T08:30:06.705Z,615
2018-09-02T08:31:08.939Z,625
2018-09-02T08:32:10.898Z,620
2018-09-02T08:33:12.822Z,620
2018-09-02T08:34:14.683Z,620
2018-09-02T08:35:16.558Z,620
2018-09-02T08:36:18.513Z,620
2018-09-02T08:37:20.562Z,620
2018-09-02T08:38:22.319Z,625
2018-09-02T08:39:24.366Z,625
2018-09-02T08:40:26.344Z,630
2018-09-02T08:41:28.334Z,630
2018-09-02T08:42:30.206Z,630
2018-09-02T08:43:32.609Z,635
2018-09-02T08:44:34.688Z,640
2018-09-02T08:45:36.631Z,640
2018-09-02T08:46:38.494Z,645
2018-09-02T08:47:40.542Z,640
2018-09-02T08:48:42.554Z,635
2018-09-02T08:49:44.423Z,630
2018-09-02T08:50:46.641Z,630
2018-09-02T08:51:48.469Z,630
2018-09-02T08:52:50.452Z,630
2018-09-02T08:53:52.485Z,635
2018-09-02T08:54:54.524Z,630
2018-09-02T08:55:56.265Z,635
2018-09-02T08:56:58.254Z,635
2018-09-02T08:58:00.111Z,635
2018-09-02T08:59:02.298Z,635
2018-09-02T09:00:04.531Z,640
2018-09-02T09:01:06.727Z,640
2018-09-02T09:02:08.504Z,650
2018-09-02T09:03:10.681Z,650
2018-09-02T09:04:12.616Z,655
2018-09-02T09:05:14.584Z,655
2018-09-02T09:06:16.563Z,655
2018-09-02T09:07:18.581Z,660
2018-09-02T09:08:20.982Z,665
2018-09-02T09:09:22.913Z,665
2018-09-02T09:10:25.162Z,665
2018-09-02T09:11:27.814Z,675
2018-09-02T09:12:30.011Z,680
2018-09-02T09:13:31.821Z,675
2018-09-02T09:14:33.840Z,680
2018-09-02T09:15:35.873Z,675
2018-09-02T09:16:37.671Z,680
2018-09-02T09:17:39.568Z,685
2018-09-02T09:18:41.615Z,685
2018-09-02T09:19:43.650Z,690
2018-09-02T09:20:45.349Z,695
2018-09-02T09:21:47.471Z,700
2018-09-02T09:22:49.573Z,700
2018-09-02T09:23:51.308Z,705
2018-09-02T09:24:53.289Z,715
2018-09-02T09:25:55.593Z,720
2018-09-02T09:26:58.019Z,730
2018-09-02T09:28:00.677Z,745
2018-09-02T09:29:02.639Z,755
2018-09-02T09:30:05.000Z,760
2018-09-02T09:31:08.232Z,765
2018-09-02T09:32:10.364Z,775
2018-09-02T09:33:13.186Z,790
2018-09-02T09:34:15.390Z,810
2018-09-02T09:35:17.444Z,830
2018-09-02T09:36:19.191Z,845
2018-09-02T09:37:21.335Z,865
2018-09-02T09:38:23.309Z,865
2018-09-02T09:39:25.447Z,875
2018-09-02T09:40:27.548Z,890
2018-09-02T09:41:29.745Z,895
2018-09-02T09:42:31.896Z,900
2018-09-02T09:43:33.839Z,910
2018-09-02T09:44:35.813Z,910
2018-09-02T09:45:37.849Z,925
2018-09-02T09:46:39.969Z,935
2018-09-02T09:47:42.258Z,940
2018-09-02T09:48:44.042Z,940
2018-09-02T09:49:46.190Z,940
2018-09-02T09:50:48.080Z,940
2018-09-02T09:51:50.656Z,950
2018-09-02T09:52:52.843Z,960
2018-09-02T09:53:55.028Z,950
2018-09-02T09:54:57.159Z,950
2018-09-02T09:55:59.353Z,960
2018-09-02T09:57:01.699Z,965
2018-09-02T09:58:03.760Z,975
2018-09-02T09:59:05.652Z,980
2018-09-02T10:00:07.592Z,985
2018-09-02T10:01:09.708Z,1000
2018-09-02T10:02:11.539Z,995
2018-09-02T10:03:13.682Z,995
2018-09-02T10:04:15.841Z,995
2018-09-02T10:05:17.865Z,1010
2018-09-02T10:06:19.889Z,1030
2018-09-02T10:07:21.922Z,1030
2018-09-02T10:08:23.957Z,1015
2018-09-02T10:09:26.282Z,995
2018-09-02T10:10:28.160Z,1005
2018-09-02T10:11:29.984Z,1000
2018-09-02T10:12:31.927Z,1005
2018-09-02T10:13:34.450Z,1015
2018-09-02T10:14:37.471Z,1015
2018-09-02T10:15:39.290Z,1020
2018-09-02T10:16:41.347Z,1025
2018-09-02T10:17:43.287Z,1030
2018-09-02T10:18:45.168Z,1030
2018-09-02T10:19:47.397Z,1035
2018-09-02T10:20:49.759Z,1040
2018-09-02T10:21:51.523Z,1040
2018-09-02T10:22:54.089Z,1050
2018-09-02T10:23:56.027Z,1045
2018-09-02T10:24:57.972Z,1065
2018-09-02T10:26:00.275Z,1070
2018-09-02T10:27:02.153Z,1085
2018-09-02T10:28:04.501Z,1085
2018-09-02T10:29:06.307Z,1095
2018-09-02T10:30:08.902Z,1100
2018-09-02T10:31:10.796Z,1110
2018-09-02T10:32:13.106Z,1115
2018-09-02T10:33:15.473Z,1115
2018-09-02T10:34:17.549Z,1110
2018-09-02T10:35:19.499Z,1120
2018-09-02T10:36:21.411Z,1135
2018-09-02T10:37:23.356Z,1165
2018-09-02T10:38:25.244Z,1190
2018-09-02T10:39:27.123Z,1215
2018-09-02T10:40:29.428Z,1235
2018-09-02T10:41:31.902Z,1275
2018-09-02T10:42:34.206Z,1730
2018-09-02T10:43:36.054Z,2945
2018-09-02T10:44:37.854Z,3855
2018-09-02T10:45:40.002Z,3995
2018-09-02T10:46:41.831Z,3670
2018-09-02T10:47:43.663Z,3395
2018-09-02T10:48:45.949Z,3415
2018-09-02T10:49:48.871Z,3560
2018-09-02T10:50:51.222Z,3445
2018-09-02T10:51:53.484Z,3500
2018-09-02T10:52:55.358Z,3555
2018-09-02T10:53:57.275Z,3595
2018-09-02T10:54:59.893Z,3620
2018-09-02T10:56:02.109Z,3650
2018-09-02T10:57:04.857Z,3650
2018-09-02T10:58:06.975Z,3640
2018-09-02T10:59:08.992Z,3705
2018-09-02T11:00:10.724Z,3760
2018-09-02T11:01:12.574Z,3705
2018-09-02T11:02:14.486Z,3700
2018-09-02T11:03:16.874Z,3845
2018-09-02T11:04:18.627Z,3925
2018-09-02T11:05:22.055Z,3855
2018-09-02T11:06:24.012Z,3990
2018-09-02T11:07:25.820Z,4255
2018-09-02T11:08:28.260Z,4510
2018-09-02T11:09:30.762Z,4575
2018-09-02T11:10:32.521Z,4215
2018-09-02T11:11:34.347Z,3935
2018-09-02T11:12:36.953Z,3875
2018-09-02T11:13:39.056Z,3945
2018-09-02T11:14:40.670Z,3890
2018-09-02T11:15:42.464Z,3930
2018-09-02T11:16:44.637Z,3925
2018-09-02T11:17:46.519Z,3935
2018-09-02T11:18:48.909Z,3975
2018-09-02T11:19:50.683Z,3820
2018-09-02T11:20:52.524Z,2600
2018-09-02T11:21:54.471Z,2560
2018-09-02T11:22:56.714Z,3820
2018-09-02T11:23:58.931Z,3805
2018-09-02T11:25:01.154Z,3785
2018-09-02T11:26:02.972Z,3795
2018-09-02T11:27:04.845Z,3800
2018-09-02T11:28:06.888Z,3820
2018-09-02T11:29:09.365Z,3865
2018-09-02T11:30:11.169Z,3820
2018-09-02T11:31:13.826Z,3820
2018-09-02T11:32:16.087Z,3835
2018-09-02T11:33:18.139Z,3820
2018-09-02T11:34:20.574Z,3835
2018-09-02T11:35:22.728Z,3845
2018-09-02T11:36:24.521Z,3810
2018-09-02T11:37:26.929Z,3800
2018-09-02T11:38:29.228Z,3825
2018-09-02T11:39:30.954Z,3765
2018-09-02T11:40:33.344Z,3745
2018-09-02T11:41:35.863Z,3785
2018-09-02T11:42:37.599Z,3625
2018-09-02T11:43:39.349Z,3795
2018-09-02T11:44:41.432Z,3765
2018-09-02T11:45:43.527Z,3765
2018-09-02T11:46:45.492Z,3800
2018-09-02T11:47:47.270Z,3695
2018-09-02T11:48:49.142Z,3725
2018-09-02T11:49:51.228Z,3760
2018-09-02T11:50:53.130Z,3690
2018-09-02T11:51:55.341Z,3770
2018-09-02T11:52:56.973Z,3665
2018-09-02T11:53:58.713Z,3675
2018-09-02T11:55:00.535Z,3740
2018-09-02T11:56:02.504Z,3690
2018-09-02T11:57:04.403Z,3655
2018-09-02T11:58:06.656Z,3630
2018-09-02T11:59:08.416Z,3765
2018-09-02T12:00:10.345Z,3750
2018-09-02T12:01:12.413Z,3780
2018-09-02T12:02:14.299Z,3830
2018-09-02T12:03:16.356Z,3795
2018-09-02T12:04:18.525Z,3750
2018-09-02T12:05:20.790Z,3800
2018-09-02T12:06:22.993Z,3705
2018-09-02T12:07:25.249Z,3725
2018-09-02T12:08:27.389Z,3690
2018-09-02T12:09:29.620Z,3695
2018-09-02T12:10:31.460Z,3735
2018-09-02T12:11:33.531Z,3735
2018-09-02T12:12:35.344Z,3750
2018-09-02T12:13:37.020Z,3695
2018-09-02T12:14:39.238Z,3645
2018-09-02T12:15:41.375Z,3700
2018-09-02T12:16:43.793Z,3655
2018-09-02T12:17:45.504Z,3685
2018-09-02T12:18:47.301Z,3630
2018-09-02T12:19:49.021Z,3660
2018-09-02T12:20:51.147Z,3655
2018-09-02T12:21:53.375Z,3660
2018-09-02T12:22:55.436Z,3695
2018-09-02T12:23:57.254Z,3720
2018-09-02T12:24:59.002Z,3760
2018-09-02T12:26:00.764Z,3670
2018-09-02T12:27:02.783Z,3605
2018-09-02T12:28:04.661Z,3640
2018-09-02T12:29:06.750Z,3695
2018-09-02T12:30:08.580Z,3640
2018-09-02T12:31:10.817Z,3650
2018-09-02T12:32:12.755Z,3650
2018-09-02T12:33:14.667Z,3665
2018-09-02T12:34:16.707Z,3625
2018-09-02T12:35:18.577Z,3630
2018-09-02T12:36:20.411Z,3585
2018-09-02T12:37:22.289Z,3590
2018-09-02T12:38:23.997Z,3615
2018-09-02T12:39:26.214Z,3630
2018-09-02T12:40:28.032Z,3625
2018-09-02T12:41:29.817Z,3595
2018-09-02T12:42:31.894Z,3530
2018-09-02T12:43:33.855Z,3400
2018-09-02T12:44:35.823Z,3375
2018-09-02T12:45:37.863Z,3355
2018-09-02T12:46:39.613Z,3320
2018-09-02T12:47:41.549Z,3335
2018-09-02T12:48:43.726Z,3465
2018-09-02T12:49:46.191Z,3435
2018-09-02T12:50:48.561Z,3260
2018-09-02T12:51:50.468Z,3230
2018-09-02T12:52:52.179Z,3300
2018-09-02T12:53:54.078Z,3395
2018-09-02T12:54:56.143Z,2390
2018-09-02T12:55:58.162Z,3155
2018-09-02T12:57:00.288Z,3920
2018-09-02T12:58:02.417Z,3885
2018-09-02T12:59:04.260Z,3740
2018-09-02T13:00:06.093Z,3040
2018-09-02T13:01:08.266Z,3635
2018-09-02T13:02:10.076Z,3555
2018-09-02T13:03:12.134Z,3550
2018-09-02T13:04:13.901Z,3590
2018-09-02T13:05:15.682Z,3580
2018-09-02T13:06:17.632Z,3535
2018-09-02T13:07:19.653Z,3505
2018-09-02T13:08:21.520Z,3470
2018-09-02T13:09:23.580Z,3520
2018-09-02T13:10:25.767Z,3520
2018-09-02T13:11:27.533Z,3540
2018-09-02T13:12:29.674Z,3400
2018-09-02T13:13:31.973Z,3565
2018-09-02T13:14:34.227Z,3570
2018-09-02T13:15:36.262Z,3530
2018-09-02T13:16:38.523Z,3525
2018-09-02T13:17:40.501Z,3555
2018-09-02T13:18:42.517Z,3605
2018-09-02T13:19:44.380Z,3560
2018-09-02T13:20:46.615Z,3505
2018-09-02T13:21:48.574Z,3540
2018-09-02T13:22:50.341Z,3520
2018-09-02T13:23:52.238Z,3485
2018-09-02T13:24:54.447Z,3505
2018-09-02T13:25:56.093Z,3485
2018-09-02T13:26:57.815Z,3490
2018-09-02T13:27:59.888Z,3465
2018-09-02T13:29:02.064Z,3430
2018-09-02T13:30:04.170Z,3455
2018-09-02T13:31:06.374Z,3515
2018-09-02T13:32:08.200Z,3510
2018-09-02T13:33:10.015Z,3475
2018-09-02T13:34:11.880Z,3495
2018-09-02T13:35:13.883Z,3500
2018-09-02T13:36:15.873Z,3330
2018-09-02T13:37:17.995Z,3425
2018-09-02T13:38:19.663Z,2140
2018-09-02T13:39:21.616Z,3335
2018-09-02T13:40:23.400Z,3285
2018-09-02T13:41:25.392Z,3255
2018-09-02T13:42:27.288Z,3185
2018-09-02T13:43:29.538Z,3085
2018-09-02T13:44:31.342Z,2780
2018-09-02T13:45:33.259Z,2355
2018-09-02T13:46:35.051Z,1890
2018-09-02T13:47:36.902Z,1685
2018-09-02T13:48:39.031Z,1650
2018-09-02T13:49:40.900Z,1760
2018-09-02T13:50:42.664Z,1815
2018-09-02T13:51:44.557Z,2000
2018-09-02T13:52:46.748Z,2335
2018-09-02T13:53:49.379Z,2470
2018-09-02T13:54:51.489Z,2605
2018-09-02T13:55:53.613Z,2860
2018-09-02T13:56:55.516Z,3065
2018-09-02T13:57:57.350Z,3160
2018-09-02T13:58:59.917Z,3240
2018-09-02T14:00:01.829Z,3340
2018-09-02T14:01:04.046Z,3295
2018-09-02T14:02:06.177Z,3325
2018-09-02T14:03:07.878Z,3330
2018-09-02T14:04:10.087Z,3295
2018-09-02T14:05:11.830Z,3270
2018-09-02T14:06:13.811Z,3210
2018-09-02T14:07:15.982Z,3205
2018-09-02T14:08:18.237Z,3275
2018-09-02T14:09:20.183Z,3220
2018-09-02T14:10:22.559Z,3125
2018-09-02T14:11:24.307Z,3205
2018-09-02T14:12:26.109Z,3255
2018-09-02T14:13:27.936Z,3210
2018-09-02T14:14:29.867Z,3135
2018-09-02T14:15:31.955Z,3155
2018-09-02T14:16:34.099Z,3165
2018-09-02T14:17:36.193Z,3185
2018-09-02T14:18:38.236Z,3195
2018-09-02T14:19:40.094Z,3140
2018-09-02T14:20:42.473Z,3175
2018-09-02T14:21:44.334Z,3115
2018-09-02T14:22:46.140Z,3110
2018-09-02T14:23:48.321Z,3125
2018-09-02T14:24:50.151Z,3155
2018-09-02T14:25:51.947Z,3145